Sea Adventure 80 — WDF3541 — position and weather

sailwx.info

Track history (hours):
 
Tides and Currents Weather Stations Pressure Air Temp Water Temp Dewpoint Dewpoint Depression Visibility Wind Speed Wind Dir Waves Ship Positions

Sea Adventure 80

Owner: McLangLLC, San Diego, CA. More information available from US FCC via Universal Licensing System and Coast Guard Vessel Documentation Center.

Last reported at 2017-Sep-12 08:32 UTC. Time now 2017-Sep-19 20:40 UTC.
Position N 32°09' W 117°21'.

Length 22 m.

Type: Wing in ground effect craft. MMSI: 367441140.

Date/timePositionNaut miles runAvg speedWind from/ knotsBaromVisibWave heightAir tempDewpointWater temp
2017-Sep-12 08:32N 32°09' W 117°21'0 6.9
2017-Sep-12 08:30N 32°09' W 117°21'  
2017-Sep-09 13:45N 32°43' W 117°14'0 0.0
2017-Sep-09 13:27N 32°43' W 117°14'0 0.0
2017-Sep-09 13:00N 32°43' W 117°14'0 0.0
2017-Sep-09 12:29N 32°43' W 117°14'0 0.0
2017-Sep-09 11:55N 32°43' W 117°14'1 2.4
2017-Sep-09 11:28N 32°42' W 117°14'1 1.6
2017-Sep-09 11:00N 32°42' W 117°14'0 0.0
2017-Sep-09 10:30N 32°42' W 117°14'1 2.4
2017-Sep-09 10:00N 32°41' W 117°14'4 6.9
2017-Sep-09 09:29N 32°37' W 117°15'4 8.6
2017-Sep-09 09:00N 32°38' W 117°20'4 8.8
2017-Sep-09 08:30N 32°39' W 117°25'4 8.4
2017-Sep-09 08:00N 32°40' W 117°30'4 8.3
2017-Sep-09 07:30N 32°41' W 117°35'4 8.0
2017-Sep-09 07:00N 32°42' W 117°40'4 8.2
2017-Sep-09 06:30N 32°42' W 117°44'4 8.3
2017-Sep-09 06:00N 32°43' W 117°49'4 8.4
2017-Sep-09 05:30N 32°44' W 117°54'4 8.2
2017-Sep-09 05:00N 32°45' W 117°59'4 7.9
2017-Sep-09 04:30N 32°46' W 118°04'5 8.0
2017-Sep-09 03:50N 32°47' W 118°10'3 8.0
2017-Sep-09 03:30N 32°48' W 118°13'4 8.1
2017-Sep-09 03:00N 32°49' W 118°17'3 6.0
2017-Sep-09 02:30N 32°49' W 118°21'0 0.1
2017-Sep-09 02:00N 32°49' W 118°21'1 1.4
2017-Sep-09 01:30N 32°49' W 118°21'0 0.0
2017-Sep-09 01:00N 32°49' W 118°21'0 0.1
2017-Sep-09 00:30N 32°49' W 118°21'1 2.8
2017-Sep-09 00:00N 32°48' W 118°21'4 7.4
2017-Sep-08 23:30N 32°44' W 118°23'0 0.6
2017-Sep-08 23:00N 32°44' W 118°23'1 1.2
2017-Sep-08 22:30N 32°44' W 118°24'0 1.0
2017-Sep-08 22:00N 32°45' W 118°24'0 0.5
2017-Sep-08 21:30N 32°45' W 118°24'4 8.2
2017-Sep-08 21:00N 32°47' W 118°28'3 5.2
2017-Sep-08 20:30N 32°48' W 118°31'0 0.0
2017-Sep-08 20:00N 32°48' W 118°31'0 0.0
2017-Sep-08 19:30N 32°48' W 118°31'0 0.2
2017-Sep-08 19:00N 32°48' W 118°31'0 0.1
2017-Sep-08 18:30N 32°48' W 118°32'2 5.0
2017-Sep-08 18:00N 32°47' W 118°29'3 6.4
2017-Sep-08 17:30N 32°44' W 118°27'0 0.8
2017-Sep-08 17:00N 32°43' W 118°27'0 0.0
2017-Sep-08 16:30N 32°43' W 118°27'0 0.0
2017-Sep-08 15:59N 32°43' W 118°27'0 0.0
2017-Sep-08 15:30N 32°43' W 118°27'0 0.1
2017-Sep-08 15:00N 32°43' W 118°27'4 7.9
2017-Sep-08 14:29N 32°46' W 118°23'3 7.1
2017-Sep-08 14:00N 32°48' W 118°20'1 2.1
2017-Sep-08 13:30N 32°49' W 118°20'0 0.8
2017-Sep-08 12:59N 32°49' W 118°21'3 5.4
2017-Sep-08 12:30N 32°49' W 118°24'0 0.1
2017-Sep-08 12:00N 32°49' W 118°24'0 0.0
2017-Sep-08 11:28N 32°49' W 118°24'0 0.0
2017-Sep-08 10:59N 32°49' W 118°24'0 0.1
2017-Sep-08 10:30N 32°49' W 118°24'0 0.1
2017-Sep-08 10:00N 32°49' W 118°24'0 0.0
2017-Sep-08 09:30N 32°49' W 118°24'0 0.1
2017-Sep-08 09:00N 32°49' W 118°24'0 0.0
2017-Sep-08 08:16N 32°49' W 118°24'0 0.0
2017-Sep-08 08:00N 32°49' W 118°24'0 0.0
2017-Sep-08 07:27N 32°49' W 118°24'0 0.0
2017-Sep-08 06:59N 32°49' W 118°24'0 0.0
2017-Sep-08 06:30N 32°49' W 118°24'0 0.0
2017-Sep-08 06:00N 32°49' W 118°24'0 0.0
2017-Sep-08 05:30N 32°49' W 118°24'0 0.0
2017-Sep-08 05:00N 32°49' W 118°24'0 0.0
2017-Sep-08 04:30N 32°49' W 118°24'2 3.4
2017-Sep-08 04:00N 32°47' W 118°23'4 7.1
2017-Sep-08 03:30N 32°44' W 118°23'3 6.6
2017-Sep-08 03:00N 32°41' W 118°24'3 5.3
2017-Sep-08 02:30N 32°39' W 118°26'3 6.8
2017-Sep-08 02:00N 32°37' W 118°29'2 3.5
2017-Sep-08 01:30N 32°35' W 118°31'0 0.8
2017-Sep-08 01:00N 32°35' W 118°31'0 0.9
2017-Sep-08 00:30N 32°35' W 118°32'1 1.2
2017-Sep-08 00:00N 32°36' W 118°32'1 1.3
2017-Sep-07 23:29N 32°37' W 118°32'1 1.3
2017-Sep-07 23:00N 32°37' W 118°32'1 1.3
2017-Sep-07 22:29N 32°38' W 118°32'1 1.3
2017-Sep-07 22:00N 32°39' W 118°32'2 4.5
2017-Sep-07 21:30N 32°37' W 118°31'1 1.0
2017-Sep-07 21:00N 32°37' W 118°31'1 1.2
2017-Sep-07 20:30N 32°38' W 118°31'2 4.3
2017-Sep-07 20:00N 32°38' W 118°29'1 2.3
2017-Sep-07 19:30N 32°38' W 118°27'1 1.2
2017-Sep-07 19:00N 32°39' W 118°28'0 1.0
2017-Sep-07 18:30N 32°39' W 118°28'0 1.0
2017-Sep-07 18:00N 32°39' W 118°28'0 1.0
2017-Sep-07 17:30N 32°40' W 118°28'0 0.9
2017-Sep-07 17:00N 32°40' W 118°29'1 2.9
2017-Sep-07 16:30N 32°41' W 118°27'2 4.0
2017-Sep-07 16:00N 32°41' W 118°25'1 1.4
2017-Sep-07 15:30N 32°41' W 118°25'1 1.4
2017-Sep-07 15:00N 32°42' W 118°25'1 1.2
2017-Sep-07 14:25N 32°42' W 118°24'2 4.7
2017-Sep-07 14:00N 32°42' W 118°22'1 1.5
2017-Sep-07 13:30N 32°43' W 118°22'2 3.4
2017-Sep-07 12:59N 32°43' W 118°20'3 6.7
2017-Sep-07 12:30N 32°43' W 118°16'3 6.6
2017-Sep-07 12:00N 32°43' W 118°12'3 6.6
2017-Sep-07 11:30N 32°43' W 118°09'4 7.0
2017-Sep-07 11:00N 32°42' W 118°04'4 7.0
2017-Sep-07 10:30N 32°42' W 118°00'3 6.9
2017-Sep-07 10:00N 32°41' W 117°56'4 7.1
2017-Sep-07 09:30N 32°41' W 117°52'4 7.0
2017-Sep-07 09:00N 32°40' W 117°48'3 6.9
2017-Sep-07 08:30N 32°40' W 117°44'3 6.7
2017-Sep-07 08:00N 32°40' W 117°40'4 7.0
2017-Sep-07 07:30N 32°39' W 117°36'4 7.3
2017-Sep-07 07:00N 32°39' W 117°31'4 7.3
2017-Sep-07 06:30N 32°39' W 117°27'4 7.3
2017-Sep-07 06:00N 32°39' W 117°23'3 7.0
2017-Sep-07 05:30N 32°39' W 117°19'3 6.8
2017-Sep-07 05:00N 32°39' W 117°15'4 6.6
2017-Sep-07 04:28N 32°42' W 117°14'0 0.8
2017-Sep-07 03:59N 32°42' W 117°14'1 2.0
2017-Sep-07 03:30N 32°42' W 117°14'0 0.1
2017-Sep-07 03:00N 32°42' W 117°14'1 1.5
2017-Sep-07 02:30N 32°42' W 117°14'1 2.1
2017-Sep-07 02:00N 32°43' W 117°14'0 0.0
2017-Sep-06 15:51N 32°43' W 117°14'0 0.0
2017-Sep-06 15:30N 32°43' W 117°14'0 0.0
2017-Sep-06 15:00N 32°43' W 117°14'0 0.0
2017-Sep-06 14:30N 32°43' W 117°14'0 0.0
2017-Sep-06 14:00N 32°43' W 117°14'0 0.0
2017-Sep-06 13:30N 32°43' W 117°14'0 0.1
2017-Sep-06 13:00N 32°43' W 117°13'1 1.5
2017-Sep-06 12:30N 32°43' W 117°13'2 3.7
2017-Sep-06 12:00N 32°42' W 117°14'3 6.0
2017-Sep-06 11:30N 32°39' W 117°13'3 5.6
2017-Sep-06 11:00N 32°36' W 117°13'3 5.7
2017-Sep-06 10:30N 32°35' W 117°16'3 5.6
2017-Sep-06 10:00N 32°35' W 117°20'3 5.4
2017-Sep-06 09:30N 32°34' W 117°23'3 5.5
2017-Sep-06 09:00N 32°34' W 117°26'3 5.5
2017-Sep-06 08:30N 32°34' W 117°29'  
2017-Sep-02 10:27N 31°37' W 117°39'4 8.5
2017-Sep-02 09:57N 31°41' W 117°39'4 7.9
2017-Sep-02 09:25N 31°45' W 117°41'  
Track history (hours):
 
Tides and Currents Weather Stations Pressure Air Temp Water Temp Dewpoint Dewpoint Depression Visibility Wind Speed Wind Dir Waves Ship Positions

Sea Adventure 80

Owner: McLangLLC, San Diego, CA. More information available from US FCC via Universal Licensing System and Coast Guard Vessel Documentation Center.

Last reported at 2017-Sep-12 08:32 UTC. Time now 2017-Sep-19 20:40 UTC.
Position N 32°09' W 117°21'.

Length 22 m.

Type: Wing in ground effect craft. MMSI: 367441140.

Date/timePositionNaut miles runAvg speedWind from/ knotsBaromVisibWave heightAir tempDewpointWater temp
2017-Sep-12 08:32N 32°09' W 117°21'0 6.9
2017-Sep-12 08:30N 32°09' W 117°21'  
2017-Sep-09 13:45N 32°43' W 117°14'0 0.0
2017-Sep-09 13:27N 32°43' W 117°14'0 0.0
2017-Sep-09 13:00N 32°43' W 117°14'0 0.0
2017-Sep-09 12:29N 32°43' W 117°14'0 0.0
2017-Sep-09 11:55N 32°43' W 117°14'1 2.4
2017-Sep-09 11:28N 32°42' W 117°14'1 1.6
2017-Sep-09 11:00N 32°42' W 117°14'0 0.0
2017-Sep-09 10:30N 32°42' W 117°14'1 2.4
2017-Sep-09 10:00N 32°41' W 117°14'4 6.9
2017-Sep-09 09:29N 32°37' W 117°15'4 8.6
2017-Sep-09 09:00N 32°38' W 117°20'4 8.8
2017-Sep-09 08:30N 32°39' W 117°25'4 8.4
2017-Sep-09 08:00N 32°40' W 117°30'4 8.3
2017-Sep-09 07:30N 32°41' W 117°35'4 8.0
2017-Sep-09 07:00N 32°42' W 117°40'4 8.2
2017-Sep-09 06:30N 32°42' W 117°44'4 8.3
2017-Sep-09 06:00N 32°43' W 117°49'4 8.4
2017-Sep-09 05:30N 32°44' W 117°54'4 8.2
2017-Sep-09 05:00N 32°45' W 117°59'4 7.9
2017-Sep-09 04:30N 32°46' W 118°04'5 8.0
2017-Sep-09 03:50N 32°47' W 118°10'3 8.0
2017-Sep-09 03:30N 32°48' W 118°13'4 8.1
2017-Sep-09 03:00N 32°49' W 118°17'3 6.0
2017-Sep-09 02:30N 32°49' W 118°21'0 0.1
2017-Sep-09 02:00N 32°49' W 118°21'1 1.4
2017-Sep-09 01:30N 32°49' W 118°21'0 0.0
2017-Sep-09 01:00N 32°49' W 118°21'0 0.1
2017-Sep-09 00:30N 32°49' W 118°21'1 2.8
2017-Sep-09 00:00N 32°48' W 118°21'4 7.4
2017-Sep-08 23:30N 32°44' W 118°23'0 0.6
2017-Sep-08 23:00N 32°44' W 118°23'1 1.2
2017-Sep-08 22:30N 32°44' W 118°24'0 1.0
2017-Sep-08 22:00N 32°45' W 118°24'0 0.5
2017-Sep-08 21:30N 32°45' W 118°24'4 8.2
2017-Sep-08 21:00N 32°47' W 118°28'3 5.2
2017-Sep-08 20:30N 32°48' W 118°31'0 0.0
2017-Sep-08 20:00N 32°48' W 118°31'0 0.0
2017-Sep-08 19:30N 32°48' W 118°31'0 0.2
2017-Sep-08 19:00N 32°48' W 118°31'0 0.1
2017-Sep-08 18:30N 32°48' W 118°32'2 5.0
2017-Sep-08 18:00N 32°47' W 118°29'3 6.4
2017-Sep-08 17:30N 32°44' W 118°27'0 0.8
2017-Sep-08 17:00N 32°43' W 118°27'0 0.0
2017-Sep-08 16:30N 32°43' W 118°27'0 0.0
2017-Sep-08 15:59N 32°43' W 118°27'0 0.0
2017-Sep-08 15:30N 32°43' W 118°27'0 0.1
2017-Sep-08 15:00N 32°43' W 118°27'4 7.9
2017-Sep-08 14:29N 32°46' W 118°23'3 7.1
2017-Sep-08 14:00N 32°48' W 118°20'1 2.1
2017-Sep-08 13:30N 32°49' W 118°20'0 0.8
2017-Sep-08 12:59N 32°49' W 118°21'3 5.4
2017-Sep-08 12:30N 32°49' W 118°24'0 0.1
2017-Sep-08 12:00N 32°49' W 118°24'0 0.0
2017-Sep-08 11:28N 32°49' W 118°24'0 0.0
2017-Sep-08 10:59N 32°49' W 118°24'0 0.1
2017-Sep-08 10:30N 32°49' W 118°24'0 0.1
2017-Sep-08 10:00N 32°49' W 118°24'0 0.0
2017-Sep-08 09:30N 32°49' W 118°24'0 0.1
2017-Sep-08 09:00N 32°49' W 118°24'0 0.0
2017-Sep-08 08:16N 32°49' W 118°24'0 0.0
2017-Sep-08 08:00N 32°49' W 118°24'0 0.0
2017-Sep-08 07:27N 32°49' W 118°24'0 0.0
2017-Sep-08 06:59N 32°49' W 118°24'0 0.0
2017-Sep-08 06:30N 32°49' W 118°24'0 0.0
2017-Sep-08 06:00N 32°49' W 118°24'0 0.0
2017-Sep-08 05:30N 32°49' W 118°24'0 0.0
2017-Sep-08 05:00N 32°49' W 118°24'0 0.0
2017-Sep-08 04:30N 32°49' W 118°24'2 3.4
2017-Sep-08 04:00N 32°47' W 118°23'4 7.1
2017-Sep-08 03:30N 32°44' W 118°23'3 6.6
2017-Sep-08 03:00N 32°41' W 118°24'3 5.3
2017-Sep-08 02:30N 32°39' W 118°26'3 6.8
2017-Sep-08 02:00N 32°37' W 118°29'2 3.5
2017-Sep-08 01:30N 32°35' W 118°31'0 0.8
2017-Sep-08 01:00N 32°35' W 118°31'0 0.9
2017-Sep-08 00:30N 32°35' W 118°32'1 1.2
2017-Sep-08 00:00N 32°36' W 118°32'1 1.3
2017-Sep-07 23:29N 32°37' W 118°32'1 1.3
2017-Sep-07 23:00N 32°37' W 118°32'1 1.3
2017-Sep-07 22:29N 32°38' W 118°32'1 1.3
2017-Sep-07 22:00N 32°39' W 118°32'2 4.5
2017-Sep-07 21:30N 32°37' W 118°31'1 1.0
2017-Sep-07 21:00N 32°37' W 118°31'1 1.2
2017-Sep-07 20:30N 32°38' W 118°31'2 4.3
2017-Sep-07 20:00N 32°38' W 118°29'1 2.3
2017-Sep-07 19:30N 32°38' W 118°27'1 1.2
2017-Sep-07 19:00N 32°39' W 118°28'0 1.0
2017-Sep-07 18:30N 32°39' W 118°28'0 1.0
2017-Sep-07 18:00N 32°39' W 118°28'0 1.0
2017-Sep-07 17:30N 32°40' W 118°28'0 0.9
2017-Sep-07 17:00N 32°40' W 118°29'1 2.9
2017-Sep-07 16:30N 32°41' W 118°27'2 4.0
2017-Sep-07 16:00N 32°41' W 118°25'1 1.4
2017-Sep-07 15:30N 32°41' W 118°25'1 1.4
2017-Sep-07 15:00N 32°42' W 118°25'1 1.2
2017-Sep-07 14:25N 32°42' W 118°24'2 4.7
2017-Sep-07 14:00N 32°42' W 118°22'1 1.5
2017-Sep-07 13:30N 32°43' W 118°22'2 3.4
2017-Sep-07 12:59N 32°43' W 118°20'3 6.7
2017-Sep-07 12:30N 32°43' W 118°16'3 6.6
2017-Sep-07 12:00N 32°43' W 118°12'3 6.6
2017-Sep-07 11:30N 32°43' W 118°09'4 7.0
2017-Sep-07 11:00N 32°42' W 118°04'4 7.0
2017-Sep-07 10:30N 32°42' W 118°00'3 6.9
2017-Sep-07 10:00N 32°41' W 117°56'4 7.1
2017-Sep-07 09:30N 32°41' W 117°52'4 7.0
2017-Sep-07 09:00N 32°40' W 117°48'3 6.9
2017-Sep-07 08:30N 32°40' W 117°44'3 6.7
2017-Sep-07 08:00N 32°40' W 117°40'4 7.0
2017-Sep-07 07:30N 32°39' W 117°36'4 7.3
2017-Sep-07 07:00N 32°39' W 117°31'4 7.3
2017-Sep-07 06:30N 32°39' W 117°27'4 7.3
2017-Sep-07 06:00N 32°39' W 117°23'3 7.0
2017-Sep-07 05:30N 32°39' W 117°19'3 6.8
2017-Sep-07 05:00N 32°39' W 117°15'4 6.6
2017-Sep-07 04:28N 32°42' W 117°14'0 0.8
2017-Sep-07 03:59N 32°42' W 117°14'1 2.0
2017-Sep-07 03:30N 32°42' W 117°14'0 0.1
2017-Sep-07 03:00N 32°42' W 117°14'1 1.5
2017-Sep-07 02:30N 32°42' W 117°14'1 2.1
2017-Sep-07 02:00N 32°43' W 117°14'0 0.0
2017-Sep-06 15:51N 32°43' W 117°14'0 0.0
2017-Sep-06 15:30N 32°43' W 117°14'0 0.0
2017-Sep-06 15:00N 32°43' W 117°14'0 0.0
2017-Sep-06 14:30N 32°43' W 117°14'0 0.0
2017-Sep-06 14:00N 32°43' W 117°14'0 0.0
2017-Sep-06 13:30N 32°43' W 117°14'0 0.1
2017-Sep-06 13:00N 32°43' W 117°13'1 1.5
2017-Sep-06 12:30N 32°43' W 117°13'2 3.7
2017-Sep-06 12:00N 32°42' W 117°14'3 6.0
2017-Sep-06 11:30N 32°39' W 117°13'3 5.6
2017-Sep-06 11:00N 32°36' W 117°13'3 5.7
2017-Sep-06 10:30N 32°35' W 117°16'3 5.6
2017-Sep-06 10:00N 32°35' W 117°20'3 5.4
2017-Sep-06 09:30N 32°34' W 117°23'3 5.5
2017-Sep-06 09:00N 32°34' W 117°26'3 5.5
2017-Sep-06 08:30N 32°34' W 117°29'  
2017-Sep-02 10:27N 31°37' W 117°39'4 8.5
2017-Sep-02 09:57N 31°41' W 117°39'4 7.9
2017-Sep-02 09:25N 31°45' W 117°41'  

Dump ship's entire track history